Accueil
METAR-TAF:

METAR-TAF

Aéroports :

Aéroport de Londres-Gatwick

Londres-Gatwick, Angleterre

latitude: 51-09N, longitude: 000-11W, altitude: 62 m

Observation

Le bulletin a été fait il y a 17 minutes, à 05:20 UTC
Vent 1 kt de ouest/nord-ouest
Température -4°C
Humidité 93%
Pression 1024 hPa
Visibilité: 8000 m

METAR: EGKK 080520Z 30001KT 8000 NSC M04/M05 Q1024

Heure: 05:37 (05:37 UTC)

Prévision

Le bulletin a été fait il y a 40 minutes, à 04:57 UTC
Prévision valable du 08 à 06 UTC au 09 à 12 UTC
Vent 3 kt de sud-ouest
Visibilité 10 km ou plus
Quelques nuages à une hauteur de 3500 ft
Probabilité 40% :
Temporairement
du 08 à 06 UTC au 08 à 09 UTC
Visibilité: 8000 m
Probabilité 30% :
Temporairement
du 09 à 00 UTC au 09 à 08 UTC
Visibilité: 8000 m

TAF: EGKK 080457Z 0806/0912 23003KT 9999 FEW035 PROB40 TEMPO 0806/0809 8000 PROB30 TEMPO 0900/0908 8000

Observations et prévisions météorologiques de plus de 4000 aéroports (messages METAR et TAF).

Les stations disponibles sont représentées par des disques jaunes et rouges sur la carte.

Passer la souris dessus pour voir le nom de la station.

Cliquer dessus pour voir les observations et prévisions météorologiques.

Pour changer de carte: cliquez sur les boutons verts avec une croix noire pour zoomer, sur le bouton vert avec un tiret pour effectuer un zoom arrière, ou sur les flèches vertes pour les cartes adjacentes.


METAR-TAF: